sensor_id;sensor_type;location;lat;lon;timestamp;pressure;altitude;pressure_sealevel;temperature;humidity
47280;BME280;34064;44.942;0.008;2023-02-28T00:01:30;99605.53;;;3.86;45.22
47280;BME280;34064;44.942;0.008;2023-02-28T00:03:57;99607.41;;;3.82;45.80
47280;BME280;34064;44.942;0.008;2023-02-28T00:06:25;99609.19;;;3.82;45.83
47280;BME280;34064;44.942;0.008;2023-02-28T00:08:52;99616.13;;;3.83;45.51
47280;BME280;34064;44.942;0.008;2023-02-28T00:11:20;99610.84;;;3.84;45.22
47280;BME280;34064;44.942;0.008;2023-02-28T00:13:49;99614.31;;;3.85;45.33
47280;BME280;34064;44.942;0.008;2023-02-28T00:16:20;99614.31;;;3.85;45.00
47280;BME280;34064;44.942;0.008;2023-02-28T00:18:48;99614.28;;;3.86;45.42
47280;BME280;34064;44.942;0.008;2023-02-28T00:21:17;99616.94;;;3.85;45.49
47280;BME280;34064;44.942;0.008;2023-02-28T00:23:45;99619.72;;;3.82;45.50
47280;BME280;34064;44.942;0.008;2023-02-28T00:26:13;99619.06;;;3.75;45.77
47280;BME280;34064;44.942;0.008;2023-02-28T00:28:41;99615.47;;;3.78;45.76
47280;BME280;34064;44.942;0.008;2023-02-28T00:31:09;99624.25;;;3.77;45.64
47280;BME280;34064;44.942;0.008;2023-02-28T00:33:36;99628.69;;;3.74;45.84
47280;BME280;34064;44.942;0.008;2023-02-28T00:36:09;99627.19;;;3.67;46.20
47280;BME280;34064;44.942;0.008;2023-02-28T00:38:38;99624.41;;;3.72;46.01
47280;BME280;34064;44.942;0.008;2023-02-28T00:41:06;99620.97;;;3.70;45.65
47280;BME280;34064;44.942;0.008;2023-02-28T00:43:38;99625.47;;;3.66;46.00
47280;BME280;34064;44.942;0.008;2023-02-28T00:46:06;99630.81;;;3.65;46.17
47280;BME280;34064;44.942;0.008;2023-02-28T00:48:34;99632.69;;;3.61;46.02
47280;BME280;34064;44.942;0.008;2023-02-28T00:51:00;99626.56;;;3.61;46.02
47280;BME280;34064;44.942;0.008;2023-02-28T00:53:27;99624.00;;;3.59;45.83
47280;BME280;34064;44.942;0.008;2023-02-28T00:55:54;99617.88;;;3.58;45.96
47280;BME280;34064;44.942;0.008;2023-02-28T00:58:20;99620.56;;;3.57;46.02
47280;BME280;34064;44.942;0.008;2023-02-28T01:00:47;99615.41;;;3.54;46.29
47280;BME280;34064;44.942;0.008;2023-02-28T01:03:20;99620.69;;;3.54;45.72
47280;BME280;34064;44.942;0.008;2023-02-28T01:05:46;99614.72;;;3.49;46.22
47280;BME280;34064;44.942;0.008;2023-02-28T01:08:13;99613.88;;;3.48;46.05
47280;BME280;34064;44.942;0.008;2023-02-28T01:10:40;99620.88;;;3.48;46.06
47280;BME280;34064;44.942;0.008;2023-02-28T01:13:07;99624.41;;;3.47;46.48
47280;BME280;34064;44.942;0.008;2023-02-28T01:15:33;99621.78;;;3.47;46.11
47280;BME280;34064;44.942;0.008;2023-02-28T01:18:00;99619.31;;;3.42;46.16
47280;BME280;34064;44.942;0.008;2023-02-28T01:20:26;99615.94;;;3.38;46.45
47280;BME280;34064;44.942;0.008;2023-02-28T01:22:53;99626.34;;;3.41;45.99
47280;BME280;34064;44.942;0.008;2023-02-28T01:25:20;99626.34;;;3.41;46.08
47280;BME280;34064;44.942;0.008;2023-02-28T01:27:47;99622.00;;;3.40;46.18
47280;BME280;34064;44.942;0.008;2023-02-28T01:30:13;99625.59;;;3.38;46.36
47280;BME280;34064;44.942;0.008;2023-02-28T01:32:40;99635.44;;;3.31;47.07
47280;BME280;34064;44.942;0.008;2023-02-28T01:35:07;99631.97;;;3.31;46.65
47280;BME280;34064;44.942;0.008;2023-02-28T01:37:33;99631.91;;;3.32;46.71
47280;BME280;34064;44.942;0.008;2023-02-28T01:39:59;99630.19;;;3.31;46.70
47280;BME280;34064;44.942;0.008;2023-02-28T01:42:26;99633.72;;;3.30;46.32
47280;BME280;34064;44.942;0.008;2023-02-28T01:45:00;99631.03;;;3.32;46.41
47280;BME280;34064;44.942;0.008;2023-02-28T01:47:36;99632.09;;;3.26;46.62
47280;BME280;34064;44.942;0.008;2023-02-28T01:50:07;99632.09;;;3.26;46.15
47280;BME280;34064;44.942;0.008;2023-02-28T01:52:35;99627.78;;;3.25;46.56
47280;BME280;34064;44.942;0.008;2023-02-28T01:55:04;99623.38;;;3.25;46.72
47280;BME280;34064;44.942;0.008;2023-02-28T01:57:38;99632.22;;;3.23;46.40
47280;BME280;34064;44.942;0.008;2023-02-28T02:00:10;99633.06;;;3.23;46.32
47280;BME280;34064;44.942;0.008;2023-02-28T02:02:40;99636.59;;;3.22;46.44
47280;BME280;34064;44.942;0.008;2023-02-28T02:05:11;99639.28;;;3.21;46.43
47280;BME280;34064;44.942;0.008;2023-02-28T02:07:43;99636.75;;;3.18;46.54
47280;BME280;34064;44.942;0.008;2023-02-28T02:10:20;99641.22;;;3.16;46.78
47280;BME280;34064;44.942;0.008;2023-02-28T02:18:51;99646.56;;;3.12;46.99
47280;BME280;34064;44.942;0.008;2023-02-28T02:21:28;99641.31;;;3.12;46.77
47280;BME280;34064;44.942;0.008;2023-02-28T02:24:54;99637.84;;;3.10;47.20
47280;BME280;34064;44.942;0.008;2023-02-28T02:30:12;99633.66;;;3.05;46.85
47280;BME280;34064;44.942;0.008;2023-02-28T02:35:56;99631.16;;;3.02;46.58
47280;BME280;34064;44.942;0.008;2023-02-28T02:39:36;99630.50;;;2.95;47.25
47280;BME280;34064;44.942;0.008;2023-02-28T02:41:50;99634.03;;;2.94;47.25
47280;BME280;34064;44.942;0.008;2023-02-28T02:44:27;99631.41;;;2.94;46.93
47280;BME280;34064;44.942;0.008;2023-02-28T02:47:06;99639.41;;;2.89;46.89
47280;BME280;34064;44.942;0.008;2023-02-28T02:49:36;99633.28;;;2.89;46.80
47280;BME280;34064;44.942;0.008;2023-02-28T02:52:08;99639.56;;;2.85;47.19
47280;BME280;34064;44.942;0.008;2023-02-28T02:54:38;99633.50;;;2.83;46.97
47280;BME280;34064;44.942;0.008;2023-02-28T02:57:21;99637.97;;;2.79;47.47
47280;BME280;34064;44.942;0.008;2023-02-28T02:59:50;99632.78;;;2.77;47.27
47280;BME280;34064;44.942;0.008;2023-02-28T03:02:18;99643.38;;;2.74;47.26
47280;BME280;34064;44.942;0.008;2023-02-28T03:04:52;99634.66;;;2.74;46.78
47280;BME280;34064;44.942;0.008;2023-02-28T03:07:20;99635.59;;;2.71;47.14
47280;BME280;34064;44.942;0.008;2023-02-28T03:09:55;99645.44;;;2.64;47.87
47280;BME280;34064;44.942;0.008;2023-02-28T03:12:46;99641.13;;;2.62;47.49
47280;BME280;34064;44.942;0.008;2023-02-28T03:15:23;99646.38;;;2.62;47.40
47280;BME280;34064;44.942;0.008;2023-02-28T03:18:10;99643.72;;;2.63;47.63
47280;BME280;34064;44.942;0.008;2023-02-28T03:23:19;99645.53;;;2.61;47.23
47280;BME280;34064;44.942;0.008;2023-02-28T03:25:56;99641.13;;;2.62;47.22
47280;BME280;34064;44.942;0.008;2023-02-28T03:28:51;99645.53;;;2.60;47.24
47280;BME280;34064;44.942;0.008;2023-02-28T03:31:35;99651.72;;;2.59;47.35
47280;BME280;34064;44.942;0.008;2023-02-28T03:34:15;99648.28;;;2.57;47.24
47280;BME280;34064;44.942;0.008;2023-02-28T03:36:47;99648.16;;;2.61;46.98
47280;BME280;34064;44.942;0.008;2023-02-28T03:39:24;99650.00;;;2.58;47.30
47280;BME280;34064;44.942;0.008;2023-02-28T03:44:35;99644.84;;;2.55;47.11
47280;BME280;34064;44.942;0.008;2023-02-28T03:47:11;99642.28;;;2.53;47.50
47280;BME280;34064;44.942;0.008;2023-02-28T03:52:29;99653.63;;;2.54;47.32
47280;BME280;34064;44.942;0.008;2023-02-28T03:55:02;99660.66;;;2.52;47.59
47280;BME280;34064;44.942;0.008;2023-02-28T03:57:51;99659.81;;;2.51;47.09
47280;BME280;34064;44.942;0.008;2023-02-28T04:00:30;99662.38;;;2.53;47.16
47280;BME280;34064;44.942;0.008;2023-02-28T04:02:59;99665.81;;;2.55;47.39
47280;BME280;34064;44.942;0.008;2023-02-28T04:05:26;99661.47;;;2.54;47.10
47280;BME280;34064;44.942;0.008;2023-02-28T04:07:53;99666.03;;;2.48;47.61
47280;BME280;34064;44.942;0.008;2023-02-28T04:10:20;99671.22;;;2.50;47.25
47280;BME280;34064;44.942;0.008;2023-02-28T04:12:46;99669.50;;;2.49;47.16
47280;BME280;34064;44.942;0.008;2023-02-28T04:15:13;99674.69;;;2.50;47.22
47280;BME280;34064;44.942;0.008;2023-02-28T04:17:39;99681.75;;;2.48;47.36
47280;BME280;34064;44.942;0.008;2023-02-28T04:20:07;99677.34;;;2.49;47.26
47280;BME280;34064;44.942;0.008;2023-02-28T04:22:36;99681.78;;;2.47;47.35
47280;BME280;34064;44.942;0.008;2023-02-28T04:25:03;99681.00;;;2.45;47.48
47280;BME280;34064;44.942;0.008;2023-02-28T04:27:32;99682.78;;;2.43;47.60
47280;BME280;34064;44.942;0.008;2023-02-28T04:29:59;99687.97;;;2.44;47.39
47280;BME280;34064;44.942;0.008;2023-02-28T04:32:26;99690.75;;;2.40;47.08
47280;BME280;34064;44.942;0.008;2023-02-28T04:34:54;99689.84;;;2.41;47.36
47280;BME280;34064;44.942;0.008;2023-02-28T04:37:21;99696.88;;;2.40;47.02
47280;BME280;34064;44.942;0.008;2023-02-28T04:39:54;99705.66;;;2.38;47.30
47280;BME280;34064;44.942;0.008;2023-02-28T04:42:21;99703.16;;;2.33;47.13
47280;BME280;34064;44.942;0.008;2023-02-28T04:44:47;99704.06;;;2.32;47.29
47280;BME280;34064;44.942;0.008;2023-02-28T04:47:14;99707.63;;;2.31;47.17
47280;BME280;34064;44.942;0.008;2023-02-28T04:49:40;99702.41;;;2.29;47.18
47280;BME280;34064;44.942;0.008;2023-02-28T04:52:07;99697.19;;;2.28;47.14
47280;BME280;34064;44.942;0.008;2023-02-28T04:54:33;99705.06;;;2.28;47.27
47280;BME280;34064;44.942;0.008;2023-02-28T04:57:00;99706.03;;;2.25;47.33
47280;BME280;34064;44.942;0.008;2023-02-28T04:59:27;99707.78;;;2.25;47.46
47280;BME280;34064;44.942;0.008;2023-02-28T05:01:53;99709.50;;;2.26;47.45
47280;BME280;34064;44.942;0.008;2023-02-28T05:04:20;99710.38;;;2.25;47.61
47280;BME280;34064;44.942;0.008;2023-02-28T05:06:46;99713.13;;;2.22;47.73
47280;BME280;34064;44.942;0.008;2023-02-28T05:09:12;99723.75;;;2.15;47.73
47280;BME280;34064;44.942;0.008;2023-02-28T05:11:39;99717.69;;;2.13;47.54
47280;BME280;34064;44.942;0.008;2023-02-28T05:14:14;99728.22;;;2.12;47.84
47280;BME280;34064;44.942;0.008;2023-02-28T05:16:40;99731.78;;;2.09;47.73
47280;BME280;34064;44.942;0.008;2023-02-28T05:19:06;99732.75;;;2.05;47.80
47280;BME280;34064;44.942;0.008;2023-02-28T05:21:36;99738.09;;;2.02;47.50
47280;BME280;34064;44.942;0.008;2023-02-28T05:24:09;99738.22;;;1.97;47.42
47280;BME280;34064;44.942;0.008;2023-02-28T05:26:40;99734.72;;;1.98;47.60
47280;BME280;34064;44.942;0.008;2023-02-28T05:29:07;99738.25;;;1.96;47.57
47280;BME280;34064;44.942;0.008;2023-02-28T05:31:33;99737.34;;;1.97;47.57
47280;BME280;34064;44.942;0.008;2023-02-28T05:34:00;99740.81;;;1.99;47.50
47280;BME280;34064;44.942;0.008;2023-02-28T05:36:28;99747.84;;;1.97;47.65
47280;BME280;34064;44.942;0.008;2023-02-28T05:38:54;99753.00;;;2.00;47.42
47280;BME280;34064;44.942;0.008;2023-02-28T05:41:21;99758.25;;;2.00;47.55
47280;BME280;34064;44.942;0.008;2023-02-28T05:43:48;99761.78;;;1.99;47.54
47280;BME280;34064;44.942;0.008;2023-02-28T05:46:16;99771.44;;;1.97;47.64
47280;BME280;34064;44.942;0.008;2023-02-28T05:48:45;99774.09;;;1.95;47.60
47280;BME280;34064;44.942;0.008;2023-02-28T05:51:13;99781.13;;;1.93;47.40
47280;BME280;34064;44.942;0.008;2023-02-28T05:53:40;99780.31;;;1.91;47.45
47280;BME280;34064;44.942;0.008;2023-02-28T05:56:07;99780.31;;;1.91;47.34
47280;BME280;34064;44.942;0.008;2023-02-28T05:58:38;99780.34;;;1.90;47.78
47280;BME280;34064;44.942;0.008;2023-02-28T06:01:26;99783.03;;;1.86;47.74
47280;BME280;34064;44.942;0.008;2023-02-28T06:03:59;99783.91;;;1.87;47.21
47280;BME280;34064;44.942;0.008;2023-02-28T06:06:28;99782.25;;;1.83;47.88
47280;BME280;34064;44.942;0.008;2023-02-28T06:08:57;99778.69;;;1.85;47.54
47280;BME280;34064;44.942;0.008;2023-02-28T06:11:24;99769.94;;;1.86;47.70
47280;BME280;34064;44.942;0.008;2023-02-28T06:13:58;99773.44;;;1.87;47.53
47280;BME280;34064;44.942;0.008;2023-02-28T06:16:27;99783.94;;;1.85;47.62
47280;BME280;34064;44.942;0.008;2023-02-28T06:18:57;99784.75;;;1.87;47.64
47280;BME280;34064;44.942;0.008;2023-02-28T06:21:24;99783.09;;;1.85;47.91
47280;BME280;34064;44.942;0.008;2023-02-28T06:23:54;99788.41;;;1.82;47.95
47280;BME280;34064;44.942;0.008;2023-02-28T06:26:22;99787.56;;;1.80;47.68
47280;BME280;34064;44.942;0.008;2023-02-28T06:28:50;99784.16;;;1.78;47.87
47280;BME280;34064;44.942;0.008;2023-02-28T06:31:18;99792.97;;;1.74;47.92
47280;BME280;34064;44.942;0.008;2023-02-28T06:33:49;99792.13;;;1.71;47.79
47280;BME280;34064;44.942;0.008;2023-02-28T06:36:18;99797.44;;;1.70;47.96
47280;BME280;34064;44.942;0.008;2023-02-28T06:38:46;99805.28;;;1.70;47.71
47280;BME280;34064;44.942;0.008;2023-02-28T06:41:18;99804.44;;;1.68;47.88
47280;BME280;34064;44.942;0.008;2023-02-28T06:43:46;99813.22;;;1.67;48.01
47280;BME280;34064;44.942;0.008;2023-02-28T06:46:14;99814.19;;;1.63;48.13
47280;BME280;34064;44.942;0.008;2023-02-28T06:48:44;99814.19;;;1.63;48.11
47280;BME280;34064;44.942;0.008;2023-02-28T06:51:13;99806.41;;;1.60;48.09
47280;BME280;34064;44.942;0.008;2023-02-28T06:53:40;99815.09;;;1.62;47.74
47280;BME280;34064;44.942;0.008;2023-02-28T06:56:09;99818.53;;;1.64;47.96
47280;BME280;34064;44.942;0.008;2023-02-28T06:58:36;99814.09;;;1.66;47.81
47280;BME280;34064;44.942;0.008;2023-02-28T07:01:04;99815.03;;;1.65;48.15
47280;BME280;34064;44.942;0.008;2023-02-28T07:03:31;99812.41;;;1.65;48.18
47280;BME280;34064;44.942;0.008;2023-02-28T07:05:57;99806.28;;;1.64;48.28
47280;BME280;34064;44.942;0.008;2023-02-28T07:08:24;99810.69;;;1.64;48.55
47280;BME280;34064;44.942;0.008;2023-02-28T07:10:54;99805.47;;;1.62;48.68
47280;BME280;34064;44.942;0.008;2023-02-28T07:13:21;99815.88;;;1.65;48.45
47280;BME280;34064;44.942;0.008;2023-02-28T07:15:59;99815.81;;;1.68;48.34
47280;BME280;34064;44.942;0.008;2023-02-28T07:18:26;99814.09;;;1.67;48.63
47280;BME280;34064;44.942;0.008;2023-02-28T07:20:53;99811.34;;;1.72;48.60
47280;BME280;34064;44.942;0.008;2023-02-28T07:23:19;99807.69;;;1.79;48.19
47280;BME280;34064;44.942;0.008;2023-02-28T07:25:46;99807.56;;;1.84;48.25
47280;BME280;34064;44.942;0.008;2023-02-28T07:28:13;99811.88;;;1.86;48.09
47280;BME280;34064;44.942;0.008;2023-02-28T07:30:40;99814.34;;;1.93;47.99
47280;BME280;34064;44.942;0.008;2023-02-28T07:33:07;99815.97;;;1.97;47.99
47280;BME280;34064;44.942;0.008;2023-02-28T07:35:34;99817.63;;;2.01;47.74
47280;BME280;34064;44.942;0.008;2023-02-28T07:38:01;99821.97;;;2.02;47.91
47280;BME280;34064;44.942;0.008;2023-02-28T07:40:27;99824.50;;;2.05;48.01
47280;BME280;34064;44.942;0.008;2023-02-28T07:42:54;99821.69;;;2.13;48.12
47280;BME280;34064;44.942;0.008;2023-02-28T07:45:20;99824.16;;;2.19;47.48
47280;BME280;34064;44.942;0.008;2023-02-28T07:47:46;99821.41;;;2.25;47.61
47280;BME280;34064;44.942;0.008;2023-02-28T07:50:14;99817.56;;;2.37;47.58
47280;BME280;34064;44.942;0.008;2023-02-28T07:52:41;99821.69;;;2.47;47.46
47280;BME280;34064;44.942;0.008;2023-02-28T07:55:09;99819.88;;;2.49;47.31
47280;BME280;34064;44.942;0.008;2023-02-28T07:57:36;99824.06;;;2.55;46.91
47280;BME280;34064;44.942;0.008;2023-02-28T08:00:04;99824.13;;;2.54;47.26
47280;BME280;34064;44.942;0.008;2023-02-28T08:02:31;99819.53;;;2.62;47.17
47280;BME280;34064;44.942;0.008;2023-02-28T08:04:58;99821.25;;;2.63;47.12
47280;BME280;34064;44.942;0.008;2023-02-28T08:07:25;99819.38;;;2.68;46.64
47280;BME280;34064;44.942;0.008;2023-02-28T08:09:51;99822.00;;;2.68;46.93
47280;BME280;34064;44.942;0.008;2023-02-28T08:12:18;99829.69;;;2.74;46.91
47280;BME280;34064;44.942;0.008;2023-02-28T08:14:44;99824.25;;;2.80;46.73
47280;BME280;34064;44.942;0.008;2023-02-28T08:17:11;99825.84;;;2.86;46.62
47280;BME280;34064;44.942;0.008;2023-02-28T08:19:38;99819.56;;;2.92;46.62
47280;BME280;34064;44.942;0.008;2023-02-28T08:22:05;99822.00;;;2.98;46.49
47280;BME280;34064;44.942;0.008;2023-02-28T08:24:31;99818.25;;;3.07;46.53
47280;BME280;34064;44.942;0.008;2023-02-28T08:26:57;99818.19;;;3.08;46.13
47280;BME280;34064;44.942;0.008;2023-02-28T08:29:24;99811.06;;;3.14;45.90
47280;BME280;34064;44.942;0.008;2023-02-28T08:31:50;99817.28;;;3.11;46.07
47280;BME280;34064;44.942;0.008;2023-02-28T08:34:17;99825.88;;;3.16;46.27
47280;BME280;34064;44.942;0.008;2023-02-28T08:36:43;99817.78;;;3.24;46.22
47280;BME280;34064;44.942;0.008;2023-02-28T08:39:12;99815.84;;;3.29;46.30
47280;BME280;34064;44.942;0.008;2023-02-28T08:41:38;99821.09;;;3.29;46.14
47280;BME280;34064;44.942;0.008;2023-02-28T08:44:05;99816.59;;;3.34;46.36
47280;BME280;34064;44.942;0.008;2023-02-28T08:46:31;99811.34;;;3.33;46.15
47280;BME280;34064;44.942;0.008;2023-02-28T08:48:57;99818.03;;;3.45;46.27
47280;BME280;34064;44.942;0.008;2023-02-28T08:51:26;99807.84;;;3.62;46.06
47280;BME280;34064;44.942;0.008;2023-02-28T08:53:54;99810.09;;;3.73;45.92
47280;BME280;34064;44.942;0.008;2023-02-28T08:56:21;99808.28;;;3.75;46.35
47280;BME280;34064;44.942;0.008;2023-02-28T08:58:48;99807.19;;;3.82;45.23
47280;BME280;34064;44.942;0.008;2023-02-28T09:01:20;99802.78;;;3.83;45.40
47280;BME280;34064;44.942;0.008;2023-02-28T09:03:50;99806.28;;;3.83;45.11
47280;BME280;34064;44.942;0.008;2023-02-28T09:06:18;99809.56;;;3.90;44.97
47280;BME280;34064;44.942;0.008;2023-02-28T09:08:45;99801.06;;;4.09;45.00
47280;BME280;34064;44.942;0.008;2023-02-28T09:11:11;99793.44;;;4.26;45.05
47280;BME280;34064;44.942;0.008;2023-02-28T09:13:39;99793.03;;;4.39;44.58
47280;BME280;34064;44.942;0.008;2023-02-28T09:16:07;99791.06;;;4.44;44.95
47280;BME280;34064;44.942;0.008;2023-02-28T09:18:35;99799.88;;;4.43;44.93
47280;BME280;34064;44.942;0.008;2023-02-28T09:21:08;99799.88;;;4.43;44.78
47280;BME280;34064;44.942;0.008;2023-02-28T09:23:34;99797.84;;;4.51;44.61
47280;BME280;34064;44.942;0.008;2023-02-28T09:26:01;99787.53;;;4.68;44.39
47280;BME280;34064;44.942;0.008;2023-02-28T09:28:27;99780.69;;;4.88;44.16
47280;BME280;34064;44.942;0.008;2023-02-28T09:30:55;99778.97;;;5.11;43.92
47280;BME280;34064;44.942;0.008;2023-02-28T09:33:22;99770.72;;;5.20;43.36
47280;BME280;34064;44.942;0.008;2023-02-28T09:35:50;99777.06;;;5.14;43.86
47280;BME280;34064;44.942;0.008;2023-02-28T09:38:17;99781.34;;;5.17;43.76
47280;BME280;34064;44.942;0.008;2023-02-28T09:40:51;99786.69;;;5.15;43.83
47280;BME280;34064;44.942;0.008;2023-02-28T09:43:20;99784.78;;;5.19;43.92
47280;BME280;34064;44.942;0.008;2023-02-28T09:48:44;99784.44;;;5.28;43.54
47280;BME280;34064;44.942;0.008;2023-02-28T09:51:30;99786.78;;;5.36;43.47
47280;BME280;34064;44.942;0.008;2023-02-28T09:53:59;99785.69;;;5.42;43.29
47280;BME280;34064;44.942;0.008;2023-02-28T10:04:48;99784.25;;;5.55;43.40
47280;BME280;34064;44.942;0.008;2023-02-28T10:07:21;99783.34;;;5.56;43.16
47280;BME280;34064;44.942;0.008;2023-02-28T10:09:55;99772.53;;;5.62;42.66
47280;BME280;34064;44.942;0.008;2023-02-28T10:12:24;99765.72;;;5.79;42.78
47280;BME280;34064;44.942;0.008;2023-02-28T10:14:53;99760.38;;;6.03;42.67
47280;BME280;34064;44.942;0.008;2023-02-28T10:17:23;99739.19;;;6.25;42.38
47280;BME280;34064;44.942;0.008;2023-02-28T10:20:12;99737.31;;;6.48;42.04
47280;BME280;34064;44.942;0.008;2023-02-28T10:25:34;99727.31;;;6.75;41.15
47280;BME280;34064;44.942;0.008;2023-02-28T10:28:14;99720.13;;;6.77;40.75
47280;BME280;34064;44.942;0.008;2023-02-28T10:30:47;99719.59;;;6.90;40.57
47280;BME280;34064;44.942;0.008;2023-02-28T10:33:28;99720.56;;;7.06;40.65
47280;BME280;34064;44.942;0.008;2023-02-28T10:35:55;99706.44;;;7.07;40.31
47280;BME280;34064;44.942;0.008;2023-02-28T10:38:34;99704.13;;;7.18;40.77
47280;BME280;34064;44.942;0.008;2023-02-28T10:41:10;99701.97;;;7.27;40.55
47280;BME280;34064;44.942;0.008;2023-02-28T10:43:38;99696.88;;;7.41;40.41
47280;BME280;34064;44.942;0.008;2023-02-28T10:51:13;99690.22;;;7.69;39.67
47280;BME280;34064;44.942;0.008;2023-02-28T10:53:49;99686.00;;;7.83;39.39
47280;BME280;34064;44.942;0.008;2023-02-28T10:56:24;99682.88;;;7.92;39.52
47280;BME280;34064;44.942;0.008;2023-02-28T10:59:03;99679.84;;;8.00;39.01
47280;BME280;34064;44.942;0.008;2023-02-28T11:01:46;99673.59;;;8.18;38.43
47280;BME280;34064;44.942;0.008;2023-02-28T11:06:58;99663.03;;;8.34;37.82
47280;BME280;34064;44.942;0.008;2023-02-28T11:11:56;99663.78;;;8.36;38.06
47280;BME280;34064;44.942;0.008;2023-02-28T11:14:27;99650.91;;;8.46;37.28
47280;BME280;34064;44.942;0.008;2023-02-28T11:16:55;99649.91;;;8.49;37.40
47280;BME280;34064;44.942;0.008;2023-02-28T11:19:39;99643.19;;;8.59;37.55
47280;BME280;34064;44.942;0.008;2023-02-28T11:22:07;99638.84;;;8.74;37.23
47280;BME280;34064;44.942;0.008;2023-02-28T11:24:42;99634.31;;;8.76;37.17
47280;BME280;34064;44.942;0.008;2023-02-28T11:27:39;99625.41;;;8.93;36.82
47280;BME280;34064;44.942;0.008;2023-02-28T11:30:31;99615.41;;;8.98;36.23
47280;BME280;34064;44.942;0.008;2023-02-28T11:32:58;99620.72;;;8.98;36.51
47280;BME280;34064;44.942;0.008;2023-02-28T11:35:28;99615.56;;;9.11;36.37
47280;BME280;34064;44.942;0.008;2023-02-28T11:37:57;99610.66;;;9.19;35.93
47280;BME280;34064;44.942;0.008;2023-02-28T11:41:12;99598.69;;;9.28;35.09
47280;BME280;34064;44.942;0.008;2023-02-28T11:51:15;99589.13;;;9.40;34.66
47280;BME280;34064;44.942;0.008;2023-02-28T11:53:59;99584.88;;;9.52;34.97
47280;BME280;34064;44.942;0.008;2023-02-28T11:57:09;99588.25;;;9.70;34.13
47280;BME280;34064;44.942;0.008;2023-02-28T12:00:02;99591.34;;;9.48;33.93
47280;BME280;34064;44.942;0.008;2023-02-28T12:03:00;99598.84;;;9.25;33.96
47280;BME280;34064;44.942;0.008;2023-02-28T12:05:33;99603.84;;;9.15;34.25
47280;BME280;34064;44.942;0.008;2023-02-28T12:08:12;99586.75;;;9.35;34.19
47280;BME280;34064;44.942;0.008;2023-02-28T12:24:58;99551.09;;;9.99;32.77
47280;BME280;34064;44.942;0.008;2023-02-28T12:27:31;99551.09;;;9.84;33.06
47280;BME280;34064;44.942;0.008;2023-02-28T12:30:21;99545.53;;;9.75;33.71
47280;BME280;34064;44.942;0.008;2023-02-28T12:32:53;99546.00;;;9.81;32.82
47280;BME280;34064;44.942;0.008;2023-02-28T12:35:33;99537.34;;;10.07;32.99
47280;BME280;34064;44.942;0.008;2023-02-28T12:38:21;99532.59;;;10.12;32.65
47280;BME280;34064;44.942;0.008;2023-02-28T12:43:22;99521.91;;;10.55;32.67
47280;BME280;34064;44.942;0.008;2023-02-28T12:45:57;99513.94;;;10.55;32.10
47280;BME280;34064;44.942;0.008;2023-02-28T12:51:02;99518.53;;;10.39;31.93
47280;BME280;34064;44.942;0.008;2023-02-28T12:59:01;99482.56;;;10.88;31.80
47280;BME280;34064;44.942;0.008;2023-02-28T13:01:47;99466.88;;;11.23;31.90
47280;BME280;34064;44.942;0.008;2023-02-28T13:09:59;99470.28;;;11.00;30.82
47280;BME280;34064;44.942;0.008;2023-02-28T13:12:26;99491.47;;;10.74;30.94
47280;BME280;34064;44.942;0.008;2023-02-28T13:15:25;99495.94;;;10.46;31.49
47280;BME280;34064;44.942;0.008;2023-02-28T13:17:56;99503.94;;;10.32;31.57
47280;BME280;34064;44.942;0.008;2023-02-28T13:20:26;99520.28;;;10.11;31.53
47280;BME280;34064;44.942;0.008;2023-02-28T13:22:55;99518.78;;;9.92;31.37
47280;BME280;34064;44.942;0.008;2023-02-28T13:27:56;99523.50;;;9.87;32.12
47280;BME280;34064;44.942;0.008;2023-02-28T13:33:24;99514.91;;;9.98;31.36
47280;BME280;34064;44.942;0.008;2023-02-28T13:38:35;99528.38;;;9.80;31.97
47280;BME280;34064;44.942;0.008;2023-02-28T13:44:17;99535.25;;;9.54;32.12
47280;BME280;34064;44.942;0.008;2023-02-28T13:57:49;99494.66;;;10.39;31.75
47280;BME280;34064;44.942;0.008;2023-02-28T14:00:31;99494.25;;;10.30;32.00
47280;BME280;34064;44.942;0.008;2023-02-28T14:03:31;99496.16;;;10.28;30.90
47280;BME280;34064;44.942;0.008;2023-02-28T14:06:29;99505.78;;;10.02;31.46
47280;BME280;34064;44.942;0.008;2023-02-28T14:09:24;99512.41;;;9.95;31.89
47280;BME280;34064;44.942;0.008;2023-02-28T14:11:51;99512.34;;;9.96;31.81
47280;BME280;34064;44.942;0.008;2023-02-28T14:17:16;99497.06;;;10.00;31.85
47280;BME280;34064;44.942;0.008;2023-02-28T14:19:47;99508.53;;;10.01;31.80
47280;BME280;34064;44.942;0.008;2023-02-28T14:25:32;99505.69;;;9.89;31.53
47280;BME280;34064;44.942;0.008;2023-02-28T14:31:04;99515.53;;;9.87;31.72
47280;BME280;34064;44.942;0.008;2023-02-28T14:36:43;99507.41;;;9.90;31.85
47280;BME280;34064;44.942;0.008;2023-02-28T14:39:24;99515.84;;;9.82;31.66
47280;BME280;34064;44.942;0.008;2023-02-28T14:41:52;99502.13;;;9.76;32.00
47280;BME280;34064;44.942;0.008;2023-02-28T14:44:24;99511.97;;;9.74;32.22
47280;BME280;34064;44.942;0.008;2023-02-28T14:47:04;99518.41;;;9.70;31.75
47280;BME280;34064;44.942;0.008;2023-02-28T14:49:37;99523.31;;;9.61;32.05
47280;BME280;34064;44.942;0.008;2023-02-28T14:52:26;99527.03;;;9.59;32.21
47280;BME280;34064;44.942;0.008;2023-02-28T14:55:06;99533.66;;;9.51;32.19
47280;BME280;34064;44.942;0.008;2023-02-28T14:57:38;99534.69;;;9.49;32.48
47280;BME280;34064;44.942;0.008;2023-02-28T15:00:13;99540.84;;;9.49;32.24
47280;BME280;34064;44.942;0.008;2023-02-28T15:02:41;99546.53;;;9.43;31.87
47280;BME280;34064;44.942;0.008;2023-02-28T15:07:45;99544.88;;;9.26;32.12
47280;BME280;34064;44.942;0.008;2023-02-28T15:10:17;99547.63;;;9.25;32.56
47280;BME280;34064;44.942;0.008;2023-02-28T15:12:46;99536.75;;;9.29;32.63
47280;BME280;34064;44.942;0.008;2023-02-28T15:15:18;99542.13;;;9.28;32.79
47280;BME280;34064;44.942;0.008;2023-02-28T15:17:53;99538.19;;;9.35;32.89
47280;BME280;34064;44.942;0.008;2023-02-28T15:20:21;99541.56;;;9.37;32.92
47280;BME280;34064;44.942;0.008;2023-02-28T15:22:51;99534.66;;;9.34;32.91
47280;BME280;34064;44.942;0.008;2023-02-28T15:25:22;99538.66;;;9.42;32.36
47280;BME280;34064;44.942;0.008;2023-02-28T15:27:56;99539.41;;;9.29;32.31
47280;BME280;34064;44.942;0.008;2023-02-28T15:30:29;99538.81;;;9.24;32.67
47280;BME280;34064;44.942;0.008;2023-02-28T15:33:17;99541.63;;;9.21;32.83